Time;durP1;ratioP1;P1;durP2;ratioP2;P2;SDS_P1;SDS_P2;PMS_P1;PMS_P2;Temp;Humidity;BMP_temperature;BMP_pressure;BME280_temperature;BME280_humidity;BME280_pressure;Samples;Min_cycle;Max_cycle;Signal;HPM_P1;HPM_P2
2023/09/15 00:00:17;;;;;;;14.18;7.65;;;;;;;15.83;100.00;101894.81;5044265;28;20044;-62
2023/09/15 00:03:05;;;;;;;13.07;7.85;;;;;;;15.74;100.00;101895.34;5052181;28;20049;-61
2023/09/15 00:05:53;;;;;;;13.13;7.72;;;;;;;15.67;100.00;101894.78;5020045;28;20053;-62
2023/09/15 00:08:41;;;;;;;13.98;7.80;;;;;;;15.64;100.00;101891.75;5046917;28;20156;-62
2023/09/15 00:11:39;;;;;;;12.25;7.50;;;;;;;15.64;100.00;101884.34;5037754;28;20408;-62
2023/09/15 00:14:28;;;;;;;11.65;6.28;;;;;;;15.68;100.00;101885.44;5041000;28;20049;-65
2023/09/15 00:17:16;;;;;;;14.65;8.35;;;;;;;15.68;100.00;101884.59;5040445;28;20112;-64
2023/09/15 00:20:12;;;;;;;14.05;6.38;;;;;;;15.64;100.00;101884.34;5019127;28;20059;-63
2023/09/15 00:23:00;;;;;;;11.75;7.00;;;;;;;15.70;100.00;101882.44;5050831;28;20049;-63
2023/09/15 00:25:48;;;;;;;12.60;7.50;;;;;;;15.68;100.00;101879.94;5053225;28;20095;-61
2023/09/15 00:28:36;;;;;;;11.68;7.20;;;;;;;15.58;100.00;101877.19;5023328;28;20097;-62
2023/09/15 00:31:24;;;;;;;13.73;7.63;;;;;;;15.51;100.00;101868.41;5037630;28;20099;-63
2023/09/15 00:34:14;;;;;;;10.48;6.40;;;;;;;15.47;100.00;101875.56;5031764;28;20583;-63
2023/09/15 00:37:03;;;;;;;13.82;7.75;;;;;;;15.47;100.00;101865.41;5034110;28;20045;-63
2023/09/15 00:39:51;;;;;;;15.10;8.40;;;;;;;15.51;100.00;101869.25;5044280;28;20045;-63
2023/09/15 00:42:41;;;;;;;10.65;6.93;;;;;;;15.51;100.00;101871.16;5036892;28;20064;-64
2023/09/15 00:45:29;;;;;;;15.32;7.72;;;;;;;15.47;100.00;101872.81;5037084;28;20428;-64
2023/09/15 00:48:18;;;;;;;13.85;8.38;;;;;;;15.39;100.00;101865.13;5051054;28;20060;-63
2023/09/15 00:51:07;;;;;;;16.13;8.18;;;;;;;15.30;100.00;101862.94;5046682;28;20046;-63
2023/09/15 00:53:56;;;;;;;11.20;7.15;;;;;;;15.26;100.00;101861.00;5042381;28;20051;-62
2023/09/15 00:56:44;;;;;;;14.05;7.55;;;;;;;15.21;100.00;101864.56;5052062;28;20059;-63
2023/09/15 00:59:33;;;;;;;12.98;7.88;;;;;;;15.19;100.00;101866.75;5041625;28;20072;-64
2023/09/15 01:02:21;;;;;;;11.77;7.15;;;;;;;15.20;100.00;101862.09;5033796;28;20168;-62
2023/09/15 01:05:10;;;;;;;11.55;7.00;;;;;;;15.22;100.00;101868.13;5018627;28;20513;-63
2023/09/15 01:08:01;;;;;;;13.73;7.50;;;;;;;15.26;100.00;101861.00;5044370;28;20096;-63
2023/09/15 01:10:49;;;;;;;9.32;6.55;;;;;;;15.24;100.00;101861.25;5023923;28;20165;-63
2023/09/15 01:13:37;;;;;;;12.32;7.68;;;;;;;15.26;100.00;101853.59;5033303;28;20140;-62
2023/09/15 01:16:43;;;;;;;11.75;7.60;;;;;;;15.30;100.00;101843.72;5018563;28;20132;-62
2023/09/15 01:19:55;;;;;;;17.73;7.30;;;;;;;15.26;100.00;101848.09;5004182;28;20053;-63
2023/09/15 01:23:08;;;;;;;11.52;6.80;;;;;;;15.20;100.00;101843.72;5032123;28;20052;-62
2023/09/15 01:26:02;;;;;;;12.25;7.63;;;;;;;15.17;100.00;101846.97;5041486;28;20131;-63
2023/09/15 01:28:53;;;;;;;14.07;8.18;;;;;;;15.10;100.00;101843.69;5019059;28;20042;-62
2023/09/15 01:31:42;;;;;;;11.40;6.82;;;;;;;15.04;100.00;101847.53;5039648;28;20514;-63
2023/09/15 01:34:31;;;;;;;13.13;7.82;;;;;;;15.01;100.00;101842.56;5049502;28;20041;-63
2023/09/15 01:37:19;;;;;;;11.45;6.93;;;;;;;14.98;100.00;101840.38;5042750;28;20052;-63
2023/09/15 01:40:08;;;;;;;11.45;6.70;;;;;;;14.96;100.00;101837.09;5046528;28;20493;-63
2023/09/15 01:42:56;;;;;;;16.20;7.28;;;;;;;14.95;100.00;101833.53;5037647;28;20041;-64
2023/09/15 01:45:44;;;;;;;13.57;7.30;;;;;;;14.95;100.00;101830.78;5009069;28;20049;-64
2023/09/15 01:48:32;;;;;;;12.50;7.22;;;;;;;14.91;100.00;101826.91;5045851;28;20049;-63
2023/09/15 01:51:21;;;;;;;14.27;7.55;;;;;;;14.91;100.00;101826.91;5033025;28;20461;-62
2023/09/15 01:54:10;;;;;;;13.85;7.00;;;;;;;14.88;100.00;101833.78;5025493;28;20106;-63
2023/09/15 01:56:58;;;;;;;11.48;7.03;;;;;;;14.90;100.00;101830.78;5034219;28;20136;-63
2023/09/15 01:59:46;;;;;;;15.73;7.70;;;;;;;14.89;100.00;101826.41;5029035;28;20041;-61
2023/09/15 02:02:34;;;;;;;12.95;7.38;;;;;;;14.81;100.00;101822.25;5040140;28;20045;-61
2023/09/15 02:05:24;;;;;;;14.30;6.85;;;;;;;14.78;100.00;101825.53;5024632;28;20144;-62
2023/09/15 02:08:13;;;;;;;10.82;6.70;;;;;;;14.77;100.00;101826.66;5025287;28;20041;-62
2023/09/15 02:11:01;;;;;;;13.65;7.63;;;;;;;14.73;100.00;101825.53;5043270;28;20056;-63
2023/09/15 02:13:49;;;;;;;12.10;6.97;;;;;;;14.70;100.00;101826.09;5038859;28;20037;-63
2023/09/15 02:16:37;;;;;;;14.45;7.22;;;;;;;14.70;100.00;101826.09;5015869;28;20055;-64
2023/09/15 02:19:25;;;;;;;12.52;7.05;;;;;;;14.69;100.00;101822.50;5032949;28;20563;-62
2023/09/15 02:22:14;;;;;;;13.02;7.95;;;;;;;14.71;100.00;101822.22;5020992;28;20124;-62
2023/09/15 02:25:02;;;;;;;14.23;7.35;;;;;;;14.67;100.00;101821.97;5024285;28;20075;-63
2023/09/15 02:27:50;;;;;;;11.90;6.50;;;;;;;14.64;100.00;101825.22;5045948;28;20040;-64
2023/09/15 02:30:38;;;;;;;16.55;7.78;;;;;;;14.59;100.00;101824.41;5053400;28;20056;-62
2023/09/15 02:33:26;;;;;;;12.50;7.40;;;;;;;14.55;100.00;101824.13;5038126;28;20413;-62
2023/09/15 02:36:14;;;;;;;11.63;6.90;;;;;;;14.53;100.00;101819.94;5035944;28;20456;-63
2023/09/15 02:39:02;;;;;;;14.00;7.65;;;;;;;14.51;100.00;101811.19;5051083;28;20087;-63
2023/09/15 02:41:50;;;;;;;11.75;6.95;;;;;;;14.48;100.00;101818.88;5037919;28;20159;-63
2023/09/15 02:44:39;;;;;;;12.85;6.60;;;;;;;14.43;100.00;101810.63;5041316;28;20068;-63
2023/09/15 02:47:29;;;;;;;13.35;6.80;;;;;;;14.44;100.00;101805.97;5019257;28;20163;-62
2023/09/15 02:50:17;;;;;;;12.35;7.00;;;;;;;14.47;100.00;101805.41;5021614;28;20037;-61
2023/09/15 02:53:06;;;;;;;11.20;6.45;;;;;;;14.45;100.00;101804.84;5033155;28;20045;-63
2023/09/15 02:56:05;;;;;;;19.33;7.57;;;;;;;14.39;100.00;101809.50;5038829;28;20118;-63
2023/09/15 02:58:56;;;;;;;15.57;7.20;;;;;;;14.35;100.00;101802.09;5034580;28;20041;-63
2023/09/15 03:01:44;;;;;;;12.73;7.15;;;;;;;14.33;100.00;101805.09;5027413;28;20131;-62
2023/09/15 03:04:33;;;;;;;13.82;6.85;;;;;;;14.27;100.00;101806.19;5033780;28;20597;-62
2023/09/15 03:07:22;;;;;;;12.68;7.28;;;;;;;14.25;100.00;101802.88;5035838;28;20528;-61
2023/09/15 03:10:10;;;;;;;13.88;7.05;;;;;;;14.25;100.00;101797.41;5021918;28;20067;-62
2023/09/15 03:12:59;;;;;;;14.32;6.68;;;;;;;14.25;100.00;101797.41;5011782;28;20045;-62
2023/09/15 03:15:48;;;;;;;12.15;6.55;;;;;;;14.23;100.00;101799.59;5021170;28;20057;-64
2023/09/15 03:18:36;;;;;;;14.32;7.03;;;;;;;14.20;100.00;101806.44;5051143;28;20041;-63
2023/09/15 03:21:25;;;;;;;12.52;6.88;;;;;;;14.13;100.00;101803.09;5036531;28;20056;-63
2023/09/15 03:24:13;;;;;;;11.48;6.35;;;;;;;14.11;100.00;101799.00;5035573;28;20049;-64
2023/09/15 03:27:01;;;;;;;10.32;6.28;;;;;;;14.10;100.00;101797.34;5019301;28;20063;-63
2023/09/15 03:29:50;;;;;;;12.75;7.03;;;;;;;14.05;100.00;101790.75;5024203;28;20037;-62
2023/09/15 03:32:39;;;;;;;13.50;6.78;;;;;;;14.02;100.00;101794.03;5032632;28;20446;-62
2023/09/15 03:35:27;;;;;;;12.30;5.95;;;;;;;14.01;100.00;101791.53;5032143;28;20053;-63
2023/09/15 03:38:15;;;;;;;14.57;7.10;;;;;;;13.99;100.00;101789.06;5003039;28;20049;-64
2023/09/15 03:41:05;;;;;;;18.05;7.05;;;;;;;13.98;100.00;101783.88;5020762;28;20371;-64
2023/09/15 03:43:55;;;;;;;11.50;6.68;;;;;;;13.97;100.00;101780.28;5018660;28;20486;-63
2023/09/15 03:46:43;;;;;;;11.93;7.20;;;;;;;13.97;100.00;101780.28;5033265;28;20041;-63
2023/09/15 03:49:31;;;;;;;14.35;6.65;;;;;;;13.96;100.00;101784.13;5031546;28;20049;-63
2023/09/15 03:52:23;;;;;;;12.65;7.05;;;;;;;13.95;100.00;101785.22;5018541;28;20092;-63
2023/09/15 03:55:11;;;;;;;13.82;7.00;;;;;;;13.94;100.00;101782.75;5032126;28;20139;-63
2023/09/15 03:57:59;;;;;;;12.50;6.95;;;;;;;13.96;100.00;101783.31;5017197;28;20497;-64
2023/09/15 04:00:47;;;;;;;10.88;6.65;;;;;;;13.93;100.00;101779.19;5016394;28;20053;-63
2023/09/15 04:03:35;;;;;;;16.55;7.38;;;;;;;13.89;100.00;101775.31;5008575;28;20606;-63
2023/09/15 04:06:24;;;;;;;16.05;7.32;;;;;;;13.86;100.00;101775.88;5013148;28;20037;-62
2023/09/15 04:09:15;;;;;;;12.60;6.72;;;;;;;13.84;100.00;101775.31;5014489;28;20148;-62
2023/09/15 04:12:03;;;;;;;16.65;7.20;;;;;;;13.83;100.00;101774.50;4990552;28;20682;-63
2023/09/15 04:14:51;;;;;;;13.13;7.65;;;;;;;13.80;100.00;101771.44;5016217;28;20080;-63
2023/09/15 04:17:40;;;;;;;13.98;6.82;;;;;;;13.77;100.00;101774.72;5017529;28;20045;-63
2023/09/15 04:20:28;;;;;;;15.20;7.35;;;;;;;13.73;100.00;101768.94;5009354;28;20108;-63
2023/09/15 04:23:33;;;;;;;12.50;6.88;;;;;;;13.72;100.00;101766.47;5004465;28;20531;-62
2023/09/15 04:26:26;;;;;;;14.73;7.50;;;;;;;13.71;100.00;101762.06;5031606;28;20120;-63
2023/09/15 04:29:14;;;;;;;14.13;7.63;;;;;;;13.70;100.00;101763.19;5016502;28;20041;-63
2023/09/15 04:32:04;;;;;;;13.25;6.95;;;;;;;13.67;100.00;101760.97;5031961;28;20061;-62
2023/09/15 04:34:52;;;;;;;11.23;6.57;;;;;;;13.69;100.00;101767.03;5018426;28;20041;-63
2023/09/15 04:37:41;;;;;;;13.65;7.00;;;;;;;13.70;100.00;101765.91;5027687;28;20049;-62
2023/09/15 04:40:31;;;;;;;11.00;6.22;;;;;;;13.75;100.00;101766.75;5022651;28;20064;-62
2023/09/15 04:43:21;;;;;;;11.45;6.70;;;;;;;13.81;100.00;101771.19;5030310;28;20489;-62
2023/09/15 04:46:10;;;;;;;14.27;7.05;;;;;;;13.79;100.00;101767.06;5028928;28;20051;-61
2023/09/15 04:48:58;;;;;;;17.77;7.78;;;;;;;13.76;100.00;101767.59;5033532;28;20049;-62
2023/09/15 04:51:46;;;;;;;13.15;6.20;;;;;;;13.73;100.00;101768.13;5029119;28;20105;-63
2023/09/15 04:54:34;;;;;;;16.70;7.10;;;;;;;13.62;100.00;101768.06;5022959;28;20052;-64
2023/09/15 04:57:23;;;;;;;14.27;7.25;;;;;;;13.61;100.00;101760.97;5036336;28;20119;-64
2023/09/15 05:00:23;;;;;;;14.50;7.20;;;;;;;13.61;100.00;101771.91;5031197;28;20045;-64
2023/09/15 05:03:15;;;;;;;15.88;7.47;;;;;;;13.57;100.00;101770.78;5026230;28;20509;-65
2023/09/15 05:06:05;;;;;;;17.20;7.28;;;;;;;13.55;100.00;101775.69;5043480;28;20160;-64
2023/09/15 05:08:55;;;;;;;12.15;7.00;;;;;;;13.57;100.00;101778.19;5025380;28;20045;-63
2023/09/15 05:11:46;;;;;;;15.88;6.85;;;;;;;13.63;100.00;101779.84;5025567;28;20052;-65
2023/09/15 05:14:35;;;;;;;12.98;6.95;;;;;;;13.66;100.00;101775.75;5040354;28;20049;-65
2023/09/15 05:17:23;;;;;;;11.43;6.72;;;;;;;13.67;100.00;101780.16;5042747;28;20485;-64
2023/09/15 05:20:11;;;;;;;13.43;6.70;;;;;;;13.64;100.00;101778.78;4327582;28;9999783;-64
2023/09/15 05:23:00;;;;;;;11.65;6.55;;;;;;;13.66;100.00;101781.22;5018017;28;21001;-65
2023/09/15 05:25:53;;;;;;;12.00;6.72;;;;;;;13.65;100.00;101777.66;5030327;28;20412;-65
2023/09/15 05:28:44;;;;;;;10.65;6.20;;;;;;;13.68;100.00;101784.53;5029965;28;20090;-65
2023/09/15 05:31:32;;;;;;;12.32;6.97;;;;;;;13.75;100.00;101790.59;5025311;28;20084;-66
2023/09/15 05:34:20;;;;;;;13.32;6.00;;;;;;;13.74;100.00;101788.97;5023349;28;20049;-65
2023/09/15 05:37:09;;;;;;;15.38;7.15;;;;;;;13.76;100.00;101789.53;5021801;28;20060;-65
2023/09/15 05:39:57;;;;;;;11.95;5.93;;;;;;;13.77;100.00;101789.22;5015014;28;20079;-65
2023/09/15 05:42:45;;;;;;;12.10;6.97;;;;;;;13.83;100.00;101785.44;5020060;28;20133;-65
2023/09/15 05:45:33;;;;;;;11.40;5.80;;;;;;;13.85;100.00;101796.13;5043808;28;20094;-64
2023/09/15 05:48:23;;;;;;;12.32;6.22;;;;;;;13.84;100.00;101794.47;5038760;28;20103;-62
2023/09/15 05:51:11;;;;;;;9.95;6.18;;;;;;;13.84;100.00;101791.75;5038111;28;20497;-64
2023/09/15 05:53:59;;;;;;;11.65;6.55;;;;;;;13.96;100.00;101795.09;5042630;28;20522;-64
2023/09/15 05:56:47;;;;;;;13.73;6.60;;;;;;;13.92;100.00;101791.22;5035915;28;20068;-65
2023/09/15 05:59:35;;;;;;;15.95;6.70;;;;;;;13.90;100.00;101789.84;5012451;28;20422;-64
2023/09/15 06:02:23;;;;;;;10.60;5.32;;;;;;;13.90;100.00;101789.84;5041442;28;20404;-65
2023/09/15 06:05:12;;;;;;;12.40;6.22;;;;;;;13.91;100.00;101788.78;5028193;28;20050;-65
2023/09/15 06:08:00;;;;;;;12.32;5.85;;;;;;;13.96;100.00;101795.09;5041339;28;20191;-64
2023/09/15 06:10:48;;;;;;;14.63;6.25;;;;;;;13.97;100.00;101790.44;5021698;28;20037;-64
2023/09/15 06:13:37;;;;;;;13.50;6.05;;;;;;;14.04;100.00;101794.56;5035460;28;20049;-64
2023/09/15 06:16:27;;;;;;;11.45;6.03;;;;;;;14.09;100.00;101798.44;5050068;28;20049;-65
2023/09/15 06:19:15;;;;;;;14.07;6.45;;;;;;;14.07;100.00;101799.53;5048499;28;20160;-63
2023/09/15 06:22:03;;;;;;;11.65;5.35;;;;;;;14.05;100.00;101795.41;5036851;28;20045;-64
2023/09/15 06:24:51;;;;;;;12.73;6.50;;;;;;;14.06;100.00;101799.78;5051544;28;20041;-63
2023/09/15 06:27:39;;;;;;;17.55;6.90;;;;;;;14.09;100.00;101804.72;5051797;28;20168;-64
2023/09/15 06:30:28;;;;;;;14.60;7.05;;;;;;;14.20;100.00;101806.44;5039146;28;20136;-63
2023/09/15 06:33:17;;;;;;;13.38;6.40;;;;;;;14.16;100.00;101799.00;5036497;28;20088;-64
2023/09/15 06:36:05;;;;;;;14.98;6.50;;;;;;;14.23;100.00;101794.09;5042709;28;20045;-64
2023/09/15 06:38:53;;;;;;;13.27;6.70;;;;;;;14.26;100.00;101793.56;5055383;28;20130;-65
2023/09/15 06:41:41;;;;;;;12.20;6.05;;;;;;;14.30;100.00;101788.38;5054981;28;20554;-65
2023/09/15 06:44:42;;;;;;;13.68;6.35;;;;;;;14.38;100.00;101790.56;5047823;28;20177;-64
2023/09/15 06:47:30;;;;;;;11.10;6.15;;;;;;;14.34;100.00;101789.50;5034735;28;20056;-64
2023/09/15 06:50:18;;;;;;;10.60;5.30;;;;;;;14.36;100.00;101788.13;5021086;28;20397;-63
2023/09/15 06:53:06;;;;;;;13.73;7.22;;;;;;;14.29;100.00;101784.81;5022254;28;20124;-64
2023/09/15 06:55:55;;;;;;;10.82;5.57;;;;;;;14.34;100.00;101784.81;5037156;28;20119;-64
2023/09/15 06:58:43;;;;;;;10.60;6.00;;;;;;;14.44;100.00;101779.34;5033842;28;20132;-64
2023/09/15 07:01:32;;;;;;;12.45;5.95;;;;;;;14.45;100.00;101775.50;5021680;28;20057;-64
2023/09/15 07:04:20;;;;;;;10.75;6.20;;;;;;;14.43;100.00;101772.25;5025403;28;20509;-64
2023/09/15 07:07:08;;;;;;;10.25;5.30;;;;;;;14.46;100.00;101773.63;5055813;28;20064;-63
2023/09/15 07:09:56;;;;;;;11.27;6.40;;;;;;;14.47;100.00;101776.06;5039364;28;20045;-65
2023/09/15 07:12:44;;;;;;;11.05;5.97;;;;;;;14.47;100.00;101780.72;5035794;28;20049;-63
2023/09/15 07:15:35;;;;;;;14.00;6.57;;;;;;;14.51;100.00;101775.56;5030575;28;20040;-64
2023/09/15 07:18:24;;;;;;;10.73;5.90;;;;;;;14.53;100.00;101776.06;5052354;28;20051;-63
2023/09/15 07:21:12;;;;;;;12.32;6.03;;;;;;;14.54;100.00;101772.28;5034496;28;20084;-63
2023/09/15 07:23:59;;;;;;;12.85;6.32;;;;;;;14.56;100.00;101770.91;5019602;28;20128;-64
2023/09/15 07:26:47;;;;;;;13.40;6.50;;;;;;;14.59;100.00;101769.53;5019986;28;20385;-65
2023/09/15 07:29:36;;;;;;;10.45;5.22;;;;;;;14.60;100.00;101769.28;5034186;28;20056;-66
2023/09/15 07:32:24;;;;;;;10.60;5.28;;;;;;;14.60;100.00;101760.22;5037520;28;20516;-64
2023/09/15 07:35:14;;;;;;;11.00;5.40;;;;;;;14.60;100.00;101763.81;5041699;28;20552;-63
2023/09/15 07:38:03;;;;;;;16.80;6.35;;;;;;;14.67;100.00;101755.28;5033326;28;20486;-63
2023/09/15 07:40:50;;;;;;;11.13;5.90;;;;;;;14.74;100.00;101755.03;5033006;28;20055;-63
2023/09/15 07:43:38;;;;;;;9.82;5.10;;;;;;;14.74;100.00;101755.84;5037835;28;20059;-64
2023/09/15 07:46:27;;;;;;;12.02;5.82;;;;;;;14.75;100.00;101748.47;5053201;28;20056;-64
2023/09/15 07:49:15;;;;;;;10.40;5.60;;;;;;;14.81;100.00;101744.59;5054052;28;20130;-64
2023/09/15 07:52:04;;;;;;;10.90;5.80;;;;;;;14.85;100.00;101745.72;5052723;28;20053;-64
2023/09/15 07:54:52;;;;;;;10.23;5.05;;;;;;;14.85;100.00;101756.69;5029622;28;20485;-65
2023/09/15 07:57:40;;;;;;;12.73;6.97;;;;;;;14.91;100.00;101756.41;5033321;28;20053;-64
2023/09/15 08:00:29;;;;;;;12.73;5.40;;;;;;;14.85;100.00;101753.94;5016085;28;20049;-64
2023/09/15 08:03:17;;;;;;;12.25;5.78;;;;;;;14.90;100.00;101752.00;5052225;28;20041;-64
2023/09/15 08:06:06;;;;;;;10.68;5.35;;;;;;;14.91;100.00;101742.69;5050686;28;20520;-64
2023/09/15 08:08:54;;;;;;;11.13;5.07;;;;;;;14.98;100.00;101745.16;5020488;28;20045;-65
2023/09/15 08:11:43;;;;;;;10.13;4.72;;;;;;;15.08;100.00;101745.16;5038607;28;20080;-64
2023/09/15 08:14:31;;;;;;;9.40;5.22;;;;;;;15.09;100.00;101737.75;5051215;28;20066;-64
2023/09/15 08:17:19;;;;;;;10.65;5.40;;;;;;;15.10;100.00;101747.63;5053049;28;20141;-63
2023/09/15 08:20:14;;;;;;;11.65;6.15;;;;;;;15.16;100.00;101735.53;5051208;28;20544;-64
2023/09/15 08:23:03;;;;;;;12.98;6.28;;;;;;;15.21;100.00;101745.69;5020724;28;20045;-65
2023/09/15 08:25:51;;;;;;;13.98;6.00;;;;;;;15.21;100.00;101737.47;5036763;28;20055;-65
2023/09/15 08:28:39;;;;;;;12.75;5.75;;;;;;;15.23;100.00;101744.31;5035962;28;20037;-64
2023/09/15 08:31:30;;;;;;;11.80;6.18;;;;;;;15.26;100.00;101741.00;5042226;28;20132;-63
2023/09/15 08:34:18;;;;;;;11.40;6.28;;;;;;;15.26;100.00;101741.00;5052692;28;20060;-64
2023/09/15 08:37:06;;;;;;;12.27;5.97;;;;;;;15.28;100.00;101743.50;5053778;28;20135;-64
2023/09/15 08:39:54;;;;;;;10.20;5.13;;;;;;;15.38;100.00;101743.47;5052398;28;20106;-64
2023/09/15 08:42:42;;;;;;;13.93;5.60;;;;;;;15.50;100.00;101743.16;5046748;28;20053;-65
2023/09/15 08:45:31;;;;;;;12.55;5.88;;;;;;;15.55;100.00;101732.97;5033437;28;20081;-64
2023/09/15 08:48:26;;;;;;;7.57;4.47;;;;;;;15.60;100.00;101734.88;5032345;28;20049;-64
2023/09/15 08:51:14;;;;;;;12.38;6.38;;;;;;;15.63;100.00;101728.81;5008261;28;20052;-66
2023/09/15 08:54:03;;;;;;;12.65;5.82;;;;;;;15.63;100.00;101733.50;5045465;28;20053;-65
2023/09/15 08:56:52;;;;;;;10.38;5.57;;;;;;;15.63;100.00;101731.56;5039909;28;20143;-65
2023/09/15 08:59:41;;;;;;;12.45;4.95;;;;;;;15.70;100.00;101729.38;5035034;28;20060;-65
2023/09/15 09:02:29;;;;;;;8.48;4.45;;;;;;;15.79;100.00;101721.38;5050729;28;20053;-64
2023/09/15 09:05:19;;;;;;;8.88;5.38;;;;;;;15.82;100.00;101725.50;5025514;28;20052;-64
2023/09/15 09:08:08;;;;;;;15.63;6.68;;;;;;;15.82;100.00;101720.81;5030913;28;20045;-65
2023/09/15 09:10:56;;;;;;;15.20;6.03;;;;;;;15.88;100.00;101721.63;5032129;28;20048;-64
2023/09/15 09:13:51;;;;;;;9.48;5.38;;;;;;;15.95;100.00;101724.91;5035499;28;20047;-63
2023/09/15 09:16:46;;;;;;;10.93;5.75;;;;;;;15.98;100.00;101732.59;5051983;28;20530;-63
2023/09/15 09:19:39;;;;;;;10.65;5.90;;;;;;;16.02;100.00;101719.94;5048813;28;20041;-63
2023/09/15 09:22:27;;;;;;;12.75;5.78;;;;;;;16.12;100.00;101724.56;5039477;28;20041;-65
2023/09/15 09:25:28;;;;;;;12.27;5.18;;;;;;;16.14;100.00;101717.66;5025344;28;20516;-64
2023/09/15 09:28:16;;;;;;;14.02;5.60;;;;;;;16.20;100.00;101715.69;5024253;28;20440;-64
2023/09/15 09:31:05;;;;;;;9.07;4.50;;;;;;;16.28;100.00;101712.31;5049985;28;20127;-64
2023/09/15 09:33:58;;;;;;;15.23;6.18;;;;;;;16.36;100.00;101702.69;5018035;28;20068;-64
2023/09/15 09:36:50;;;;;;;8.60;4.25;;;;;;;16.44;100.00;101707.56;5033843;28;20510;-65
2023/09/15 09:39:38;;;;;;;10.00;5.28;;;;;;;16.42;100.00;101708.97;5033832;28;20120;-64
2023/09/15 09:42:28;;;;;;;11.20;4.57;;;;;;;16.46;100.00;101701.78;5030472;28;20045;-64
2023/09/15 09:45:17;;;;;;;7.63;4.03;;;;;;;16.58;100.00;101696.72;5034711;28;20126;-64
2023/09/15 09:48:05;;;;;;;10.10;4.85;;;;;;;16.63;100.00;101701.38;5052767;28;20049;-65
2023/09/15 09:50:54;;;;;;;8.95;4.70;;;;;;;16.61;100.00;101699.72;5035832;28;20045;-67
2023/09/15 09:53:42;;;;;;;12.80;6.55;;;;;;;16.65;100.00;101704.66;5031596;28;20060;-65
2023/09/15 09:56:34;;;;;;;13.68;6.43;;;;;;;16.71;100.00;101698.00;5031180;28;20053;-64
2023/09/15 09:59:22;;;;;;;38.00;20.55;;;;;;;16.81;100.00;101700.69;5016185;28;20045;-64
2023/09/15 10:02:11;;;;;;;26.38;14.18;;;;;;;16.85;100.00;101699.00;5036264;28;20505;-65
2023/09/15 10:04:59;;;;;;;44.47;22.88;;;;;;;16.85;100.00;101699.00;5031981;28;20040;-65
2023/09/15 10:07:48;;;;;;;13.85;6.72;;;;;;;16.81;100.00;101700.69;5046345;28;20048;-64
2023/09/15 10:10:41;;;;;;;15.32;7.75;;;;;;;16.83;100.00;101702.03;5035788;28;20042;-64
2023/09/15 10:13:30;;;;;;;54.63;29.33;;;;;;;16.89;100.00;101691.81;5034009;28;20110;-64
2023/09/15 10:16:18;;;;;;;92.35;51.90;;;;;;;16.96;100.00;101686.00;5040717;28;20095;-65
2023/09/15 10:19:07;;;;;;;38.60;22.88;;;;;;;17.01;100.00;101674.94;5053855;28;20052;-63
2023/09/15 10:21:57;;;;;;;36.78;21.88;;;;;;;17.04;100.00;101674.34;5035221;28;20042;-65
2023/09/15 10:24:47;;;;;;;22.02;8.80;;;;;;;17.06;100.00;101677.63;5028578;28;20053;-64
2023/09/15 10:27:35;;;;;;;22.60;10.23;;;;;;;17.08;100.00;101671.81;5010798;28;20053;-63
2023/09/15 10:30:23;;;;;;;11.35;7.30;;;;;;;17.09;100.00;101667.97;5017207;28;20124;-64
2023/09/15 10:33:12;;;;;;;11.75;6.35;;;;;;;17.10;100.00;101662.16;5022815;28;20053;-63
2023/09/15 10:36:04;;;;;;;23.40;14.70;;;;;;;17.18;100.00;101661.53;5044122;28;20120;-63
2023/09/15 10:38:54;;;;;;;14.43;8.00;;;;;;;17.31;99.66;101659.19;5040702;28;20080;-64
2023/09/15 10:41:42;;;;;;;12.70;6.47;;;;;;;17.40;97.44;101649.16;5050349;28;20147;-64
2023/09/15 10:44:30;;;;;;;12.25;6.80;;;;;;;17.39;96.76;101659.38;5035525;28;20049;-62
2023/09/15 10:47:19;;;;;;;13.88;6.10;;;;;;;17.36;96.71;101646.16;5023760;28;20068;-64
2023/09/15 10:50:08;;;;;;;11.82;6.20;;;;;;;17.44;99.69;101639.19;5050715;28;20413;-63
2023/09/15 10:53:09;;;;;;;15.30;7.10;;;;;;;17.57;99.61;101638.47;5057589;28;20493;-63
2023/09/15 10:55:57;;;;;;;19.00;11.25;;;;;;;17.68;99.77;101636.41;5055420;28;20464;-64
2023/09/15 10:58:48;;;;;;;13.95;6.80;;;;;;;17.70;98.47;101641.59;5036780;28;20111;-64
2023/09/15 11:01:37;;;;;;;11.20;5.43;;;;;;;17.69;96.88;101635.28;5034356;28;20498;-64
2023/09/15 11:04:29;;;;;;;9.57;5.90;;;;;;;17.74;97.32;101629.69;5036119;28;20131;-64
2023/09/15 11:07:17;;;;;;;15.93;7.47;;;;;;;17.82;97.90;101622.72;5036624;28;20044;-64
2023/09/15 11:10:06;;;;;;;12.45;6.43;;;;;;;17.85;97.96;101625.72;5038441;28;20079;-64
2023/09/15 11:12:59;;;;;;;12.27;5.82;;;;;;;17.88;97.76;101622.34;5055309;28;20045;-64
2023/09/15 11:15:47;;;;;;;16.60;6.80;;;;;;;17.95;98.25;101637.72;5039656;28;20041;-63
2023/09/15 11:18:36;;;;;;;9.85;5.40;;;;;;;17.98;97.78;101626.09;4999104;28;20037;-64
2023/09/15 11:21:24;;;;;;;10.57;6.07;;;;;;;18.01;95.61;101625.50;5023688;28;20037;-64
2023/09/15 11:24:13;;;;;;;10.45;5.93;;;;;;;18.02;94.05;101616.13;5044797;28;20052;-64
2023/09/15 11:27:01;;;;;;;12.15;6.30;;;;;;;18.06;93.60;101612.47;5056310;28;20420;-64
2023/09/15 11:29:50;;;;;;;12.73;6.10;;;;;;;18.14;93.95;101612.91;5054388;28;20045;-64
2023/09/15 11:32:51;;;;;;;9.52;5.38;;;;;;;18.21;94.04;101611.41;5056224;28;20119;-63
2023/09/15 11:35:40;;;;;;;9.75;5.70;;;;;;;18.22;93.98;101610.25;5052956;28;20045;-63
2023/09/15 11:38:28;;;;;;;10.23;5.78;;;;;;;18.28;93.63;101606.31;5027084;28;20044;-64
2023/09/15 11:41:17;;;;;;;8.73;5.00;;;;;;;18.29;93.27;101605.19;5043358;28;20045;-64
2023/09/15 11:44:08;;;;;;;9.25;4.85;;;;;;;18.31;92.30;101607.66;5055130;28;20041;-64
2023/09/15 11:47:00;;;;;;;12.73;6.60;;;;;;;18.41;93.50;101606.66;5025960;28;20041;-63
2023/09/15 11:49:49;;;;;;;13.50;6.30;;;;;;;18.44;92.91;101600.53;5037552;28;20045;-64
2023/09/15 11:52:37;;;;;;;15.52;6.57;;;;;;;18.48;91.56;101594.09;5048571;28;20056;-64
2023/09/15 11:55:25;;;;;;;9.63;5.63;;;;;;;18.49;92.48;101603.19;5026708;28;20139;-64
2023/09/15 11:58:14;;;;;;;11.48;6.47;;;;;;;18.52;92.86;101592.38;5052572;28;20489;-63
2023/09/15 12:01:02;;;;;;;13.07;6.20;;;;;;;18.58;92.53;101590.34;5052911;28;20045;-65
2023/09/15 12:03:50;;;;;;;10.52;5.50;;;;;;;18.58;92.34;101584.00;5053344;28;20501;-64
2023/09/15 12:06:40;;;;;;;10.40;5.50;;;;;;;18.61;93.29;101580.63;5055051;28;20092;-65
2023/09/15 12:09:29;;;;;;;10.40;5.43;;;;;;;18.63;92.43;101586.69;5039760;28;20048;-64
2023/09/15 12:12:17;;;;;;;10.80;5.80;;;;;;;18.64;93.09;101582.78;5053128;28;20362;-66
2023/09/15 12:15:08;;;;;;;11.38;5.40;;;;;;;18.66;91.76;101573.06;5025547;28;20404;-65
2023/09/15 12:17:56;;;;;;;10.73;5.22;;;;;;;18.72;91.68;101580.16;5038230;28;20044;-64
2023/09/15 12:20:48;;;;;;;10.30;5.38;;;;;;;18.74;91.81;101572.38;5037437;28;20112;-65
2023/09/15 12:23:36;;;;;;;10.55;4.82;;;;;;;18.78;90.14;101563.50;5019350;28;20041;-65
2023/09/15 12:26:25;;;;;;;9.20;4.25;;;;;;;18.80;87.60;101569.56;5032328;28;20184;-64
2023/09/15 12:29:16;;;;;;;7.32;3.92;;;;;;;18.85;85.14;101567.50;5023731;28;20516;-65
2023/09/15 12:32:04;;;;;;;8.40;3.97;;;;;;;18.91;83.79;101576.53;5033192;28;20188;-64
2023/09/15 12:34:53;;;;;;;9.18;3.90;;;;;;;18.96;83.16;101567.31;4329062;28;10000832;-63
2023/09/15 12:37:43;;;;;;;7.63;3.90;;;;;;;18.97;84.33;101564.25;5045254;28;20049;-64
2023/09/15 12:40:32;;;;;;;8.27;4.05;;;;;;;18.97;84.13;101564.25;5049307;28;20057;-64
2023/09/15 12:43:20;;;;;;;7.70;3.72;;;;;;;19.00;82.22;101558.13;5047862;28;20065;-64
2023/09/15 12:46:09;;;;;;;8.68;4.07;;;;;;;19.07;81.58;101558.53;5049251;28;20091;-65
2023/09/15 12:48:57;;;;;;;7.63;3.47;;;;;;;19.09;81.61;101556.25;5018096;28;20055;-65
2023/09/15 12:51:45;;;;;;;10.63;4.35;;;;;;;19.05;82.85;101555.25;5030354;28;20128;-65